Time;durP1;ratioP1;P1;durP2;ratioP2;P2;SDS_P1;SDS_P2;PMS_P1;PMS_P2;Temp;Humidity;BMP_temperature;BMP_pressure;BME280_temperature;BME280_humidity;BME280_pressure;Samples;Min_cycle;Max_cycle;Signal;HPM_P1;HPM_P2
2022/04/27 00:00:25;;;;;;;3.00;2.22;;;18.80;95.10;;;;;;4241264;27;20256;-81
2022/04/27 00:02:27;;;;;;;2.95;2.45;;;18.90;95.20;;;;;;4241429;27;20728;-80
2022/04/27 00:04:31;;;;;;;2.75;1.85;;;18.80;95.20;;;;;;4241551;27;20225;-80
2022/04/27 00:06:34;;;;;;;3.53;2.40;;;18.90;95.10;;;;;;4243458;27;20213;-80
2022/04/27 00:08:37;;;;;;;3.60;2.40;;;18.90;95.20;;;;;;4243852;27;20217;-81
2022/04/27 00:10:39;;;;;;;4.15;2.30;;;18.90;95.50;;;;;;4243877;27;20242;-80
2022/04/27 00:12:42;;;;;;;3.10;2.30;;;18.80;95.10;;;;;;4241804;27;20229;-80
2022/04/27 00:14:44;;;;;;;3.10;2.00;;;18.80;95.10;;;;;;4242110;27;20225;-80
2022/04/27 00:16:47;;;;;;;2.65;2.30;;;18.90;95.30;;;;;;4240348;27;20239;-80
2022/04/27 00:18:49;;;;;;;2.65;2.15;;;18.80;95.20;;;;;;4241727;27;20254;-81
2022/04/27 00:20:53;;;;;;;2.63;2.25;;;18.80;95.10;;;;;;4241607;27;21057;-80
2022/04/27 00:22:55;;;;;;;4.22;2.22;;;18.80;95.60;;;;;;4241442;27;20259;-80
2022/04/27 00:25:01;;;;;;;2.67;2.00;;;18.80;95.20;;;;;;4242404;27;20250;-80
2022/04/27 00:27:03;;;;;;;3.40;2.35;;;18.90;95.20;;;;;;4243035;27;20548;-80
2022/04/27 00:29:05;;;;;;;2.05;1.83;;;18.80;95.10;;;;;;4242330;27;20221;-80
2022/04/27 00:31:08;;;;;;;2.40;2.10;;;18.80;95.20;;;;;;4242284;27;20312;-80
2022/04/27 00:33:11;;;;;;;2.75;2.15;;;18.80;95.10;;;;;;4239434;27;20220;-80
2022/04/27 00:35:13;;;;;;;3.55;2.40;;;18.80;95.10;;;;;;4217987;28;20730;-81
2022/04/27 00:37:18;;;;;;;2.70;2.20;;;18.80;95.20;;;;;;4217804;28;20273;-80
2022/04/27 00:39:20;;;;;;;2.30;2.10;;;18.80;95.20;;;;;;4221595;28;20605;-80
2022/04/27 00:41:22;;;;;;;4.35;2.40;;;18.80;95.10;;;;;;4221875;28;20626;-81
2022/04/27 00:43:39;;;;;;;2.78;2.20;;;18.80;95.50;;;;;;4221044;28;20927;-81
2022/04/27 00:45:42;;;;;;;2.38;2.00;;;18.80;95.10;;;;;;4220515;28;20221;-80
2022/04/27 00:47:44;;;;;;;3.70;2.50;;;18.80;95.20;;;;;;4221650;28;20230;-80
2022/04/27 00:49:48;;;;;;;2.28;1.90;;;18.80;95.20;;;;;;4219501;28;20267;-80
2022/04/27 00:51:51;;;;;;;2.85;2.30;;;18.80;95.10;;;;;;4216058;28;20271;-80
2022/04/27 00:53:58;;;;;;;2.72;2.40;;;18.80;95.20;;;;;;4217418;28;20218;-80
2022/04/27 00:56:00;;;;;;;3.85;2.60;;;18.80;95.40;;;;;;4216094;28;20607;-80
2022/04/27 00:58:04;;;;;;;2.08;1.88;;;18.80;95.20;;;;;;4218938;28;20218;-81
2022/04/27 01:00:08;;;;;;;3.78;2.22;;;18.80;95.50;;;;;;4214983;28;20295;-80
2022/04/27 01:02:11;;;;;;;2.75;2.22;;;18.80;95.20;;;;;;4218263;28;20621;-81
2022/04/27 01:04:13;;;;;;;2.33;1.98;;;18.80;95.30;;;;;;4217578;28;20219;-79
2022/04/27 01:06:16;;;;;;;2.47;2.20;;;18.80;95.20;;;;;;4220136;28;20259;-81
2022/04/27 01:08:20;;;;;;;2.65;2.05;;;18.80;95.20;;;;;;4216942;28;20263;-80
2022/04/27 01:10:27;;;;;;;3.13;2.38;;;18.80;95.40;;;;;;4227710;27;20654;-80
2022/04/27 01:12:29;;;;;;;3.40;2.20;;;18.80;95.30;;;;;;4217499;28;20664;-80
2022/04/27 01:14:42;;;;;;;2.97;2.45;;;18.80;95.30;;;;;;4224304;27;20263;-80
2022/04/27 01:16:50;;;;;;;4.10;2.45;;;18.80;95.40;;;;;;4219030;27;20218;-80
2022/04/27 01:18:52;;;;;;;3.42;2.40;;;18.80;95.50;;;;;;4220308;27;20214;-82
2022/04/27 01:20:56;;;;;;;2.20;2.00;;;18.80;95.20;;;;;;4228741;27;20268;-80
2022/04/27 01:23:00;;;;;;;2.60;2.40;;;18.80;95.70;;;;;;4224683;28;20266;-80
2022/04/27 01:25:02;;;;;;;2.70;2.05;;;18.80;95.40;;;;;;4219111;28;20270;-80
2022/04/27 01:27:05;;;;;;;2.88;2.20;;;18.80;95.40;;;;;;4222706;28;20221;-81
2022/04/27 01:29:07;;;;;;;2.30;2.03;;;18.70;95.40;;;;;;4226090;28;20227;-80
2022/04/27 01:31:11;;;;;;;2.72;2.33;;;18.70;95.30;;;;;;4222314;28;20557;-81
2022/04/27 01:33:14;;;;;;;4.22;2.35;;;18.70;95.20;;;;;;4220389;28;20621;-80
2022/04/27 01:35:16;;;;;;;4.47;2.03;;;18.80;95.50;;;;;;4229046;28;20265;-80
2022/04/27 01:39:40;;;;;;;3.58;2.35;;;18.70;95.40;;;;;;4228413;28;20213;-80
2022/04/27 01:41:42;;;;;;;3.63;2.67;;;18.70;95.30;;;;;;4223720;28;20237;-80
2022/04/27 01:43:44;;;;;;;2.35;2.10;;;18.70;95.50;;;;;;4222200;28;20266;-80
2022/04/27 01:45:47;;;;;;;2.28;2.00;;;18.70;95.50;;;;;;4220245;28;20631;-80
2022/04/27 01:47:49;;;;;;;4.35;2.55;;;18.70;95.40;;;;;;4221216;28;20210;-80
2022/04/27 01:49:51;;;;;;;2.53;2.10;;;18.70;95.20;;;;;;4220677;28;20712;-80
2022/04/27 01:54:18;;;;;;;2.90;2.10;;;18.70;95.70;;;;;;4228692;28;20599;-80
2022/04/27 01:56:21;;;;;;;2.55;2.35;;;18.70;95.40;;;;;;4224140;28;20229;-80
2022/04/27 01:58:24;;;;;;;2.63;2.20;;;18.70;95.50;;;;;;4229208;28;20251;-80
2022/04/27 02:00:26;;;;;;;2.58;2.10;;;18.70;95.60;;;;;;4225960;28;20302;-81
2022/04/27 02:02:29;;;;;;;3.33;2.22;;;18.70;95.20;;;;;;4220518;28;20221;-81
2022/04/27 02:04:31;;;;;;;3.88;2.30;;;18.70;95.40;;;;;;4224711;28;20217;-80
2022/04/27 02:06:35;;;;;;;2.42;2.03;;;18.60;95.30;;;;;;4226508;28;20221;-80
2022/04/27 02:08:37;;;;;;;2.53;2.20;;;18.70;95.60;;;;;;4226659;27;20218;-81
2022/04/27 02:10:41;;;;;;;3.33;1.95;;;18.60;95.70;;;;;;4228664;27;20217;-81
2022/04/27 02:12:44;;;;;;;3.95;2.35;;;18.60;95.40;;;;;;4226856;27;20222;-81
2022/04/27 02:14:46;;;;;;;3.40;2.03;;;18.60;95.60;;;;;;4229741;27;20214;-81
2022/04/27 02:16:48;;;;;;;4.03;2.20;;;18.60;95.20;;;;;;4228172;27;20271;-81
2022/04/27 02:18:51;;;;;;;3.78;2.40;;;18.60;95.60;;;;;;4229749;27;20598;-80
2022/04/27 02:20:56;;;;;;;3.00;2.10;;;18.60;95.60;;;;;;4229174;27;20275;-81
2022/04/27 02:22:58;;;;;;;2.80;2.20;;;18.60;95.50;;;;;;4227153;27;20218;-81
2022/04/27 02:25:00;;;;;;;2.95;2.38;;;18.60;95.60;;;;;;4232565;27;20206;-81
2022/04/27 02:27:04;;;;;;;3.42;2.05;;;18.60;95.60;;;;;;4223822;27;20226;-81
2022/04/27 02:29:08;;;;;;;2.38;2.10;;;18.60;95.30;;;;;;4229064;27;20342;-80
2022/04/27 02:31:10;;;;;;;3.10;2.13;;;18.60;95.40;;;;;;4226274;27;20209;-81
2022/04/27 02:33:13;;;;;;;3.17;1.98;;;18.60;95.50;;;;;;4223010;27;20219;-81
2022/04/27 02:35:15;;;;;;;2.53;2.10;;;18.60;95.40;;;;;;4220916;28;20221;-81
2022/04/27 02:37:18;;;;;;;2.42;2.10;;;18.60;95.20;;;;;;4221520;28;20674;-81
2022/04/27 02:39:20;;;;;;;2.42;2.22;;;18.60;95.50;;;;;;4218057;28;20244;-80
2022/04/27 02:41:23;;;;;;;2.90;2.33;;;18.60;95.30;;;;;;4222144;28;20280;-81
2022/04/27 02:43:27;;;;;;;4.00;2.45;;;18.60;95.50;;;;;;4217849;28;20230;-80
2022/04/27 02:45:29;;;;;;;2.08;1.80;;;18.60;95.30;;;;;;4220577;28;20298;-81
2022/04/27 02:47:31;;;;;;;2.95;2.42;;;18.60;95.30;;;;;;4219287;28;20218;-81
2022/04/27 02:51:54;;;;;;;3.88;2.20;;;18.60;95.40;;;;;;4220392;28;20206;-81
2022/04/27 02:53:56;;;;;;;3.60;2.25;;;18.60;95.60;;;;;;4223008;28;20297;-81
2022/04/27 02:55:58;;;;;;;3.30;2.20;;;18.50;95.30;;;;;;4220616;28;20217;-81
2022/04/27 02:58:01;;;;;;;3.22;2.20;;;18.60;95.20;;;;;;4220498;28;20217;-81
2022/04/27 03:00:05;;;;;;;4.35;2.47;;;18.50;95.30;;;;;;4218790;28;20252;-81
2022/04/27 03:02:07;;;;;;;3.05;2.10;;;18.50;95.40;;;;;;4218237;28;20705;-81
2022/04/27 03:04:10;;;;;;;4.28;2.50;;;18.50;95.20;;;;;;4215802;28;20222;-81
2022/04/27 03:06:13;;;;;;;2.35;1.88;;;18.50;95.20;;;;;;4218205;28;20620;-81
2022/04/27 03:08:15;;;;;;;2.97;2.53;;;18.50;95.20;;;;;;4219672;28;20251;-80
2022/04/27 03:10:17;;;;;;;2.72;2.25;;;18.50;95.10;;;;;;4219689;28;20215;-80
2022/04/27 03:12:20;;;;;;;1.92;1.80;;;18.50;95.40;;;;;;4223335;28;20206;-81
2022/04/27 03:14:22;;;;;;;2.50;2.30;;;18.50;95.10;;;;;;4218111;28;20210;-80
2022/04/27 03:16:27;;;;;;;2.97;1.90;;;18.50;95.60;;;;;;4220153;28;20230;-80
2022/04/27 03:18:29;;;;;;;3.03;2.42;;;18.50;95.40;;;;;;4217652;28;20259;-81
2022/04/27 03:20:31;;;;;;;2.42;2.08;;;18.50;95.30;;;;;;4219449;28;20632;-81
2022/04/27 03:22:34;;;;;;;2.97;2.10;;;18.50;95.40;;;;;;4219556;28;20265;-80
2022/04/27 03:24:37;;;;;;;3.47;2.50;;;18.50;95.50;;;;;;4218615;28;20222;-80
2022/04/27 03:26:40;;;;;;;3.22;2.20;;;18.50;95.40;;;;;;4219015;28;20219;-80
2022/04/27 03:28:42;;;;;;;2.85;1.95;;;18.50;95.30;;;;;;4219628;28;20863;-80
2022/04/27 03:30:44;;;;;;;3.83;2.30;;;18.40;95.20;;;;;;4216273;28;20298;-80
2022/04/27 03:32:48;;;;;;;2.72;2.17;;;18.50;95.40;;;;;;4219280;28;20214;-80
2022/04/27 03:34:50;;;;;;;3.40;1.90;;;18.50;95.20;;;;;;4239962;27;20278;-81
2022/04/27 03:36:52;;;;;;;2.50;2.25;;;18.50;95.20;;;;;;4240734;27;20209;-80
2022/04/27 03:38:55;;;;;;;2.63;2.35;;;18.40;95.30;;;;;;4242666;27;20216;-81
2022/04/27 03:40:57;;;;;;;2.88;2.10;;;18.50;95.40;;;;;;4243192;27;21733;-81
2022/04/27 03:43:19;;;;;;;2.47;2.20;;;18.50;95.40;;;;;;4238422;27;20251;-81
2022/04/27 03:45:22;;;;;;;2.53;2.13;;;18.40;95.40;;;;;;4230884;27;20217;-81
2022/04/27 03:47:25;;;;;;;3.65;2.17;;;18.50;95.50;;;;;;4243987;27;20278;-80
2022/04/27 03:49:28;;;;;;;3.13;2.40;;;18.40;95.70;;;;;;4244419;27;20212;-81
2022/04/27 03:51:31;;;;;;;3.17;2.30;;;18.50;95.40;;;;;;4242076;27;20271;-81
2022/04/27 03:53:33;;;;;;;2.67;2.35;;;18.40;95.40;;;;;;4239054;27;20210;-81
2022/04/27 03:55:36;;;;;;;3.83;2.03;;;18.40;95.30;;;;;;4241505;27;20274;-81
2022/04/27 03:57:38;;;;;;;4.55;2.35;;;18.40;95.00;;;;;;4240787;27;20209;-81
2022/04/27 03:59:41;;;;;;;4.32;2.42;;;18.40;95.30;;;;;;4247335;27;20653;-80
2022/04/27 04:01:44;;;;;;;2.10;1.90;;;18.50;95.30;;;;;;4241913;27;20502;-81
2022/04/27 04:03:46;;;;;;;2.67;2.10;;;18.40;95.10;;;;;;4243187;27;20221;-80
2022/04/27 04:05:50;;;;;;;2.95;2.22;;;18.40;95.20;;;;;;4241578;27;20737;-80
2022/04/27 04:07:52;;;;;;;2.65;1.90;;;18.40;95.30;;;;;;4241500;27;20217;-80
2022/04/27 04:09:55;;;;;;;2.65;2.38;;;18.40;95.20;;;;;;4242220;27;20214;-81
2022/04/27 04:11:57;;;;;;;3.65;2.35;;;18.40;95.40;;;;;;4242390;27;20282;-80
2022/04/27 04:13:59;;;;;;;2.22;1.98;;;18.40;95.20;;;;;;4242361;27;20265;-80
2022/04/27 04:16:02;;;;;;;3.45;2.33;;;18.50;95.30;;;;;;4238125;27;20252;-81
2022/04/27 04:18:05;;;;;;;4.10;2.20;;;18.40;95.50;;;;;;4235208;27;20213;-81
2022/04/27 04:20:09;;;;;;;2.53;2.33;;;18.40;95.10;;;;;;4241129;27;20275;-80
2022/04/27 04:22:13;;;;;;;4.30;2.15;;;18.40;95.20;;;;;;4244256;27;20283;-80
2022/04/27 04:24:16;;;;;;;2.67;2.00;;;18.40;95.20;;;;;;4246433;27;20216;-81
2022/04/27 04:28:53;;;;;;;2.75;1.95;;;18.40;95.20;;;;;;4207796;28;20245;-80
2022/04/27 04:30:57;;;;;;;4.40;2.15;;;18.40;95.00;;;;;;4213353;28;20283;-81
2022/04/27 04:32:59;;;;;;;2.95;2.40;;;18.40;95.00;;;;;;4217245;28;20218;-80
2022/04/27 04:35:02;;;;;;;2.78;2.30;;;18.40;95.20;;;;;;4237963;27;20241;-81
2022/04/27 04:37:05;;;;;;;3.72;2.50;;;18.40;95.10;;;;;;4241118;27;20216;-80
2022/04/27 04:39:09;;;;;;;3.40;2.25;;;18.40;94.90;;;;;;4240124;27;20623;-81
2022/04/27 04:41:11;;;;;;;2.45;1.98;;;18.40;95.40;;;;;;4240710;27;20737;-80
2022/04/27 04:43:14;;;;;;;2.65;2.28;;;18.40;95.10;;;;;;4237737;27;20709;-81
2022/04/27 04:45:16;;;;;;;4.40;2.40;;;18.40;95.10;;;;;;4237352;27;20266;-80
2022/04/27 04:47:18;;;;;;;3.90;2.30;;;18.40;95.20;;;;;;4239077;27;20345;-81
2022/04/27 04:49:21;;;;;;;2.03;1.83;;;18.40;95.00;;;;;;4239651;27;20262;-81
2022/04/27 04:51:23;;;;;;;3.45;1.98;;;18.40;95.10;;;;;;4240379;27;20630;-81
2022/04/27 04:53:25;;;;;;;2.60;2.20;;;18.40;95.10;;;;;;4239726;27;21557;-80
2022/04/27 04:55:29;;;;;;;4.72;2.42;;;18.40;95.00;;;;;;4240648;27;20266;-80
2022/04/27 04:57:31;;;;;;;3.28;2.10;;;18.40;95.00;;;;;;4238837;27;20258;-81
2022/04/27 04:59:34;;;;;;;4.28;2.25;;;18.40;95.10;;;;;;4238285;27;20221;-81
2022/04/27 05:01:36;;;;;;;3.72;2.20;;;18.40;95.60;;;;;;4241294;27;20246;-81
2022/04/27 05:03:38;;;;;;;5.68;2.47;;;18.40;95.00;;;;;;4242547;27;20213;-81
2022/04/27 05:05:41;;;;;;;3.28;2.30;;;18.40;95.00;;;;;;4237836;27;20617;-80
2022/04/27 05:07:43;;;;;;;3.50;2.10;;;18.40;95.30;;;;;;4243397;27;20242;-81
2022/04/27 05:09:46;;;;;;;2.47;2.13;;;18.40;95.40;;;;;;4242983;27;20281;-81
2022/04/27 05:11:50;;;;;;;2.92;2.22;;;18.40;95.10;;;;;;4240848;27;20630;-81
2022/04/27 05:13:52;;;;;;;2.42;2.22;;;18.40;95.30;;;;;;4236574;27;20226;-81
2022/04/27 05:15:56;;;;;;;3.67;2.40;;;18.40;95.60;;;;;;4243049;27;20377;-81
2022/04/27 05:17:58;;;;;;;3.20;2.25;;;18.40;95.30;;;;;;4243246;27;20209;-81
2022/04/27 05:20:01;;;;;;;2.97;2.17;;;18.40;95.60;;;;;;4242791;27;20270;-81
2022/04/27 05:22:04;;;;;;;3.22;1.90;;;18.40;95.30;;;;;;4239584;27;20217;-80
2022/04/27 05:24:07;;;;;;;3.75;2.28;;;18.40;95.50;;;;;;4243664;27;21916;-81
2022/04/27 05:26:11;;;;;;;4.63;2.40;;;18.40;95.40;;;;;;4241822;27;20324;-81
2022/04/27 05:28:14;;;;;;;3.35;2.28;;;18.40;95.40;;;;;;4242701;27;20220;-81
2022/04/27 05:32:46;;;;;;;2.72;1.83;;;18.40;95.50;;;;;;4242807;28;20213;-81
2022/04/27 05:34:49;;;;;;;5.03;2.33;;;18.40;95.60;;;;;;4239108;28;20232;-81
2022/04/27 05:36:51;;;;;;;3.70;2.30;;;18.40;95.50;;;;;;4243810;28;20677;-81
2022/04/27 05:38:53;;;;;;;3.33;2.20;;;18.40;95.40;;;;;;4236769;28;20218;-81
2022/04/27 05:40:56;;;;;;;3.33;2.25;;;18.40;95.50;;;;;;4241472;28;20217;-81
2022/04/27 05:42:58;;;;;;;3.97;2.13;;;18.40;95.50;;;;;;4241613;28;20229;-81
2022/04/27 05:45:02;;;;;;;2.83;2.20;;;18.40;95.40;;;;;;4243618;27;20583;-81
2022/04/27 05:47:05;;;;;;;3.90;2.30;;;18.40;95.50;;;;;;4245114;27;20254;-81
2022/04/27 05:49:08;;;;;;;2.90;2.15;;;18.40;95.60;;;;;;4246103;27;20213;-81
2022/04/27 05:51:10;;;;;;;3.42;2.17;;;18.40;95.40;;;;;;4245655;27;20674;-80
2022/04/27 05:53:12;;;;;;;3.13;2.25;;;18.40;95.60;;;;;;4244979;27;20270;-81
2022/04/27 05:55:15;;;;;;;3.15;2.20;;;18.40;95.60;;;;;;4245145;27;20209;-81
2022/04/27 05:57:17;;;;;;;4.35;2.63;;;18.40;95.70;;;;;;4242999;27;20225;-80
2022/04/27 05:59:20;;;;;;;2.90;1.98;;;18.40;95.60;;;;;;4243643;27;20217;-81
2022/04/27 06:01:24;;;;;;;4.13;2.30;;;18.40;95.60;;;;;;4243251;27;20217;-81
2022/04/27 06:03:27;;;;;;;4.47;2.42;;;18.40;95.50;;;;;;4243331;27;20282;-81
2022/04/27 06:05:29;;;;;;;2.50;2.20;;;18.40;95.30;;;;;;4246380;27;20216;-80
2022/04/27 06:07:34;;;;;;;3.30;2.20;;;18.40;95.70;;;;;;4245221;27;20236;-81
2022/04/27 06:09:36;;;;;;;2.63;2.30;;;18.40;95.70;;;;;;4243350;27;20218;-81
2022/04/27 06:11:38;;;;;;;3.38;2.58;;;18.40;95.60;;;;;;4245767;27;20217;-81
2022/04/27 06:13:41;;;;;;;3.33;2.17;;;18.40;95.50;;;;;;4240711;27;20262;-81
2022/04/27 06:15:43;;;;;;;3.78;2.38;;;18.40;95.60;;;;;;4245749;27;20333;-81
2022/04/27 06:17:47;;;;;;;4.10;2.10;;;18.40;95.60;;;;;;4246063;27;20220;-81
2022/04/27 06:19:49;;;;;;;3.00;2.30;;;18.40;95.90;;;;;;4244946;27;20209;-80
2022/04/27 06:21:52;;;;;;;4.47;2.50;;;18.40;95.50;;;;;;4245436;27;20726;-81
2022/04/27 06:23:54;;;;;;;3.83;2.40;;;18.40;95.60;;;;;;4245797;27;20236;-81
2022/04/27 06:25:57;;;;;;;3.83;2.30;;;18.50;95.60;;;;;;4245736;27;20598;-81
2022/04/27 06:27:59;;;;;;;2.55;1.95;;;18.40;95.50;;;;;;4245496;27;20220;-81
2022/04/27 06:30:02;;;;;;;6.53;2.30;;;18.40;95.60;;;;;;4241970;27;20217;-80
2022/04/27 06:32:05;;;;;;;2.58;2.08;;;18.50;95.50;;;;;;4244988;27;20282;-81
2022/04/27 06:34:09;;;;;;;3.03;2.20;;;18.50;95.60;;;;;;4244663;27;21584;-81
2022/04/27 06:36:11;;;;;;;2.50;2.05;;;18.40;95.60;;;;;;4244625;27;20270;-81
2022/04/27 06:38:14;;;;;;;3.33;2.33;;;18.50;95.80;;;;;;4245230;27;20266;-81
2022/04/27 06:40:16;;;;;;;3.17;2.47;;;18.50;95.60;;;;;;4245751;27;20337;-81
2022/04/27 06:42:20;;;;;;;2.45;2.00;;;18.50;95.60;;;;;;4243254;27;20317;-81
2022/04/27 06:44:22;;;;;;;2.65;2.15;;;18.50;95.90;;;;;;4241745;27;20241;-81
2022/04/27 06:46:25;;;;;;;4.88;2.47;;;18.50;95.60;;;;;;4240058;27;20258;-80
2022/04/27 06:48:27;;;;;;;3.33;2.30;;;18.50;95.60;;;;;;4242737;27;20267;-81
2022/04/27 06:50:31;;;;;;;2.88;2.13;;;18.50;95.70;;;;;;4243393;27;20613;-81
2022/04/27 06:52:33;;;;;;;3.53;2.40;;;18.50;95.70;;;;;;4243812;27;20205;-81
2022/04/27 06:54:35;;;;;;;3.20;2.17;;;18.50;95.60;;;;;;4243375;27;20226;-81
2022/04/27 06:56:37;;;;;;;3.78;2.25;;;18.50;96.10;;;;;;4242727;27;20282;-81
2022/04/27 06:58:42;;;;;;;4.00;2.05;;;18.50;95.80;;;;;;4240517;27;20262;-81
2022/04/27 07:00:45;;;;;;;4.78;2.22;;;18.50;95.70;;;;;;4237320;27;20365;-81
2022/04/27 07:02:47;;;;;;;3.25;2.20;;;18.50;95.80;;;;;;4238670;27;20267;-80
2022/04/27 07:04:55;;;;;;;2.80;2.10;;;18.40;95.40;;;;;;4235378;27;20305;-81
2022/04/27 07:06:59;;;;;;;7.03;4.60;;;18.40;95.60;;;;;;4235016;27;20208;-80
2022/04/27 07:09:01;;;;;;;10.10;6.50;;;18.30;94.50;;;;;;4237429;27;20212;-82
2022/04/27 07:11:04;;;;;;;10.15;7.25;;;17.70;94.00;;;;;;4241062;27;20262;-82
2022/04/27 07:13:06;;;;;;;16.17;7.70;;;17.30;94.20;;;;;;4235352;27;20209;-81
2022/04/27 07:15:09;;;;;;;11.00;7.65;;;16.90;94.60;;;;;;4237309;27;20225;-81
2022/04/27 07:17:12;;;;;;;12.73;8.43;;;16.60;94.50;;;;;;4241549;27;22418;-81
2022/04/27 07:19:14;;;;;;;12.15;8.27;;;16.50;94.50;;;;;;4237811;27;20213;-81
2022/04/27 07:21:16;;;;;;;12.93;8.07;;;16.50;94.40;;;;;;4236029;27;20270;-81
2022/04/27 07:23:20;;;;;;;9.88;7.53;;;16.40;94.40;;;;;;4236330;27;20761;-79
2022/04/27 07:25:23;;;;;;;10.05;7.72;;;16.40;94.40;;;;;;4234865;27;20209;-79
2022/04/27 07:27:27;;;;;;;13.48;8.10;;;16.50;94.30;;;;;;4235029;27;20205;-79
2022/04/27 07:29:29;;;;;;;11.88;7.95;;;16.50;94.30;;;;;;4240841;27;20238;-81
2022/04/27 07:31:34;;;;;;;13.53;7.87;;;16.60;94.20;;;;;;4232593;27;20258;-80
2022/04/27 07:33:37;;;;;;;10.15;7.60;;;16.60;94.20;;;;;;4237188;27;20233;-79
2022/04/27 07:35:39;;;;;;;16.07;7.87;;;16.50;94.20;;;;;;4238018;27;20994;-82
2022/04/27 07:37:41;;;;;;;10.60;8.03;;;16.50;94.80;;;;;;4235376;27;21317;-75
2022/04/27 07:39:45;;;;;;;12.63;8.38;;;16.50;94.40;;;;;;4232005;27;20222;-73
2022/04/27 07:41:47;;;;;;;10.23;7.20;;;16.50;94.40;;;;;;4227614;27;20229;-73
2022/04/27 07:43:50;;;;;;;11.35;7.65;;;16.60;94.20;;;;;;4236200;27;20634;-73
2022/04/27 07:45:52;;;;;;;10.88;7.30;;;16.50;94.10;;;;;;4238081;27;20217;-74
2022/04/27 07:47:54;;;;;;;13.85;7.13;;;16.60;94.10;;;;;;4233513;27;20205;-73
2022/04/27 07:49:57;;;;;;;12.98;5.95;;;16.90;94.40;;;;;;4236459;27;20266;-74
2022/04/27 07:51:59;;;;;;;8.93;5.45;;;17.20;94.60;;;;;;4236457;27;20293;-75
2022/04/27 07:54:01;;;;;;;7.45;4.60;;;17.50;94.80;;;;;;4237038;27;20213;-75
2022/04/27 07:56:06;;;;;;;10.13;4.90;;;17.80;94.80;;;;;;4235220;27;20225;-72
2022/04/27 07:58:08;;;;;;;6.72;4.00;;;18.00;94.80;;;;;;4226946;27;20210;-74
2022/04/27 08:00:12;;;;;;;5.43;3.90;;;18.10;94.90;;;;;;4233846;27;20263;-76
2022/04/27 08:02:15;;;;;;;7.15;3.42;;;18.30;94.70;;;;;;4233788;27;20282;-75
2022/04/27 08:04:17;;;;;;;7.68;3.95;;;18.40;94.50;;;;;;4228205;27;20279;-75
2022/04/27 08:06:20;;;;;;;5.18;3.08;;;18.50;94.60;;;;;;4232103;27;20213;-75
2022/04/27 08:08:22;;;;;;;6.85;2.83;;;18.60;94.60;;;;;;4233838;27;20270;-75
2022/04/27 08:10:24;;;;;;;4.78;2.88;;;18.70;94.60;;;;;;4232591;27;20217;-75
2022/04/27 08:12:28;;;;;;;4.90;2.58;;;18.70;94.40;;;;;;4236385;27;20874;-76
2022/04/27 08:14:31;;;;;;;6.07;2.80;;;18.80;94.50;;;;;;4235807;27;20213;-73
2022/04/27 08:16:34;;;;;;;8.90;3.10;;;18.90;94.70;;;;;;4237245;27;20262;-75
2022/04/27 08:18:36;;;;;;;4.57;2.63;;;18.90;94.40;;;;;;4232994;27;20209;-74
2022/04/27 08:23:00;;;;;;;4.45;2.55;;;18.90;94.80;;;;;;4236578;27;20963;-76
2022/04/27 08:25:02;;;;;;;5.03;2.72;;;19.00;94.80;;;;;;4233368;27;20295;-83
2022/04/27 08:27:04;;;;;;;5.68;2.53;;;18.90;94.60;;;;;;4231947;27;20278;-83
2022/04/27 08:29:08;;;;;;;4.90;2.08;;;18.90;95.00;;;;;;4234576;27;20213;-84
2022/04/27 08:31:13;;;;;;;4.82;2.42;;;19.00;94.90;;;;;;4229823;27;20289;-83
2022/04/27 08:33:16;;;;;;;6.32;2.40;;;19.00;94.70;;;;;;4235715;27;20209;-75
2022/04/27 08:35:18;;;;;;;4.88;2.50;;;19.00;94.90;;;;;;4225386;27;20313;-75
2022/04/27 08:37:21;;;;;;;6.18;2.08;;;19.10;94.60;;;;;;4231392;27;20221;-76
2022/04/27 08:39:23;;;;;;;6.32;2.58;;;19.10;95.00;;;;;;4239387;27;20209;-76
2022/04/27 08:41:28;;;;;;;5.30;2.40;;;19.20;95.30;;;;;;4239123;27;20274;-76
2022/04/27 08:43:30;;;;;;;4.07;2.13;;;19.10;95.30;;;;;;4230401;27;20273;-76
2022/04/27 08:45:34;;;;;;;5.18;2.40;;;19.20;95.60;;;;;;4229255;27;20242;-84
2022/04/27 08:47:36;;;;;;;3.28;2.40;;;19.30;95.60;;;;;;4235853;27;20254;-85
2022/04/27 08:49:38;;;;;;;5.80;2.30;;;19.30;95.60;;;;;;4232830;27;20661;-75
2022/04/27 08:51:42;;;;;;;7.22;2.13;;;19.30;95.00;;;;;;4234930;27;20285;-75
2022/04/27 08:53:45;;;;;;;7.88;2.85;;;19.30;94.80;;;;;;4228066;27;20890;-76
2022/04/27 08:55:49;;;;;;;6.50;2.53;;;19.30;94.90;;;;;;4236276;27;20217;-76
2022/04/27 08:57:54;;;;;;;7.18;2.47;;;19.30;95.20;;;;;;4227492;27;20631;-75
2022/04/27 08:59:57;;;;;;;5.90;2.00;;;19.40;94.70;;;;;;4232945;27;20205;-76
2022/04/27 09:02:23;;;;;;;7.78;2.20;;;19.20;95.30;;;;;;4233034;27;20213;-76
2022/04/27 09:04:25;;;;;;;3.63;2.38;;;19.30;95.30;;;;;;4232794;27;20240;-75
2022/04/27 09:06:38;;;;;;;3.50;2.15;;;19.40;95.10;;;;;;4233275;27;20224;-75
2022/04/27 09:08:43;;;;;;;6.07;2.70;;;19.50;95.10;;;;;;4228640;27;20270;-76
2022/04/27 09:10:46;;;;;;;5.47;2.47;;;19.60;95.20;;;;;;4238183;27;20222;-75
2022/04/27 09:12:49;;;;;;;5.82;2.42;;;19.60;95.10;;;;;;4235686;27;20235;-75
2022/04/27 09:14:52;;;;;;;7.97;2.42;;;19.60;94.90;;;;;;4233501;27;20266;-75
2022/04/27 09:21:55;;;;;;;5.47;2.30;;;19.60;95.10;;;;;;4236688;27;20204;-75
2022/04/27 09:24:03;;;;;;;4.53;2.08;;;19.60;95.20;;;;;;4234532;27;20713;-75
2022/04/27 09:26:18;;;;;;;5.63;2.42;;;19.60;95.40;;;;;;4238418;27;20293;-75
2022/04/27 09:28:24;;;;;;;3.75;2.05;;;19.70;95.40;;;;;;4238910;27;21878;-78
2022/04/27 09:30:28;;;;;;;3.03;1.95;;;19.70;95.30;;;;;;4229196;27;20357;-76
2022/04/27 09:32:31;;;;;;;5.63;2.13;;;19.70;95.30;;;;;;4232451;28;20353;-75
2022/04/27 09:34:45;;;;;;;9.73;1.95;;;19.60;95.50;;;;;;4225814;28;20233;-75
2022/04/27 09:36:48;;;;;;;3.70;2.30;;;19.60;95.60;;;;;;4238547;28;20217;-75
2022/04/27 09:38:50;;;;;;;4.22;2.25;;;19.70;95.40;;;;;;4236232;28;20218;-76
2022/04/27 09:40:54;;;;;;;3.05;1.98;;;19.80;95.40;;;;;;4239624;28;20625;-76
2022/04/27 09:42:59;;;;;;;3.63;2.15;;;19.70;95.40;;;;;;4233259;28;20270;-76
2022/04/27 09:45:18;;;;;;;5.13;1.92;;;19.80;95.60;;;;;;4226379;28;20289;-76
2022/04/27 09:47:22;;;;;;;4.07;1.98;;;19.80;95.60;;;;;;4233555;28;20217;-81
2022/04/27 09:49:24;;;;;;;5.57;2.38;;;19.80;95.60;;;;;;4234103;28;20212;-81
2022/04/27 09:51:29;;;;;;;5.10;2.17;;;19.80;95.70;;;;;;4231135;28;20266;-80
2022/04/27 09:53:32;;;;;;;7.25;2.20;;;19.80;95.80;;;;;;4223133;28;21597;-79
2022/04/27 09:55:37;;;;;;;6.70;2.15;;;19.80;96.00;;;;;;4234385;28;20627;-79
2022/04/27 09:57:41;;;;;;;3.83;2.28;;;19.90;96.00;;;;;;4235784;28;20261;-78
2022/04/27 09:59:48;;;;;;;9.35;2.35;;;19.80;96.00;;;;;;4227616;28;20217;-78
2022/04/27 10:01:53;;;;;;;41.28;4.38;;;19.90;96.00;;;;;;4231900;28;20676;-79
2022/04/27 10:03:57;;;;;;;8.80;2.75;;;19.80;95.70;;;;;;4232306;28;20259;-77
2022/04/27 10:05:59;;;;;;;8.65;2.55;;;19.90;96.20;;;;;;4233353;28;20233;-81
2022/04/27 10:08:05;;;;;;;10.25;2.78;;;19.90;96.00;;;;;;4225003;28;20229;-80
2022/04/27 10:10:08;;;;;;;6.38;2.22;;;19.90;95.90;;;;;;4228017;28;20214;-79
2022/04/27 10:12:13;;;;;;;5.20;2.20;;;19.90;96.10;;;;;;4219772;28;20225;-79
2022/04/27 10:14:16;;;;;;;4.25;2.30;;;19.90;96.10;;;;;;4224936;28;20616;-79
2022/04/27 10:16:18;;;;;;;6.22;2.10;;;19.90;96.00;;;;;;4214956;28;20260;-79
2022/04/27 10:18:22;;;;;;;9.13;2.50;;;19.90;96.30;;;;;;4226072;27;20217;-80
2022/04/27 10:20:28;;;;;;;6.82;2.17;;;19.90;96.10;;;;;;4226602;28;20213;-81
2022/04/27 10:22:32;;;;;;;5.63;2.10;;;19.90;96.10;;;;;;4229029;28;20229;-83
2022/04/27 10:24:54;;;;;;;4.13;2.00;;;19.90;96.10;;;;;;4232293;28;20271;-81
2022/04/27 10:27:14;;;;;;;4.10;2.10;;;19.70;96.30;;;;;;4229286;28;20263;-82
2022/04/27 10:29:16;;;;;;;4.80;2.10;;;19.70;96.50;;;;;;4232447;28;20267;-78
2022/04/27 10:31:56;;;;;;;6.50;2.25;;;19.70;96.60;;;;;;4228087;27;20217;-81
2022/04/27 10:33:59;;;;;;;5.28;2.30;;;19.80;96.40;;;;;;4235123;27;20984;-80
2022/04/27 10:36:21;;;;;;;4.15;2.25;;;19.80;95.90;;;;;;4230706;27;20801;-79
2022/04/27 10:38:25;;;;;;;5.03;2.22;;;19.90;96.00;;;;;;4230846;27;20229;-80
2022/04/27 10:40:31;;;;;;;5.28;2.28;;;19.90;96.10;;;;;;4230102;27;20220;-79
2022/04/27 10:42:34;;;;;;;4.68;1.90;;;19.90;96.20;;;;;;4233246;27;20222;-78
2022/04/27 10:45:05;;;;;;;4.45;1.85;;;19.90;96.30;;;;;;4233080;27;20201;-79
2022/04/27 10:47:15;;;;;;;3.03;1.85;;;19.80;96.40;;;;;;4234995;27;20197;-80
2022/04/27 10:49:22;;;;;;;3.80;2.10;;;19.90;96.50;;;;;;4236759;27;20740;-81
2022/04/27 10:51:25;;;;;;;4.07;1.73;;;19.80;96.50;;;;;;4230255;27;20208;-80
2022/04/27 10:53:28;;;;;;;4.53;2.10;;;19.80;96.60;;;;;;4228388;27;20345;-80
2022/04/27 10:55:51;;;;;;;7.40;2.03;;;19.80;96.60;;;;;;4233724;27;20319;-79
2022/04/27 10:58:11;;;;;;;4.63;2.10;;;19.80;96.70;;;;;;4231408;27;20221;-79
2022/04/27 11:00:15;;;;;;;5.88;2.30;;;19.80;96.90;;;;;;4227609;27;20240;-80
2022/04/27 11:02:33;;;;;;;4.82;2.45;;;19.70;96.80;;;;;;4228630;27;20259;-80